sensor_id;sensor_type;location;lat;lon;timestamp;pressure;altitude;pressure_sealevel;temperature;humidity
15932;BME280;8065;49.520;11.284;2023-05-10T00:01:06;96755.59;;;19.48;54.99
15932;BME280;8065;49.520;11.284;2023-05-10T00:03:32;96755.56;;;19.55;54.94
15932;BME280;8065;49.520;11.284;2023-05-10T00:05:59;96751.69;;;19.63;54.73
15932;BME280;8065;49.520;11.284;2023-05-10T00:08:25;96749.72;;;19.67;54.82
15932;BME280;8065;49.520;11.284;2023-05-10T00:10:54;96749.69;;;19.74;54.74
15932;BME280;8065;49.520;11.284;2023-05-10T00:13:21;96753.22;;;19.64;55.46
15932;BME280;8065;49.520;11.284;2023-05-10T00:15:48;96743.97;;;19.65;55.51
15932;BME280;8065;49.520;11.284;2023-05-10T00:18:15;96740.88;;;19.67;55.91
15932;BME280;8065;49.520;11.284;2023-05-10T00:20:42;96745.06;;;19.75;55.37
15932;BME280;8065;49.520;11.284;2023-05-10T00:23:11;96743.47;;;19.81;55.49
15932;BME280;8065;49.520;11.284;2023-05-10T00:25:37;96743.13;;;19.75;55.50
15932;BME280;8065;49.520;11.284;2023-05-10T00:28:05;96736.94;;;19.78;55.62
15932;BME280;8065;49.520;11.284;2023-05-10T00:30:32;96729.69;;;19.68;55.55
15932;BME280;8065;49.520;11.284;2023-05-10T00:32:58;96730.94;;;19.53;56.38
15932;BME280;8065;49.520;11.284;2023-05-10T00:35:25;96744.69;;;19.69;55.83
15932;BME280;8065;49.520;11.284;2023-05-10T00:37:52;96735.41;;;19.77;56.02
15932;BME280;8065;49.520;11.284;2023-05-10T00:40:18;96736.63;;;19.69;56.48
15932;BME280;8065;49.520;11.284;2023-05-10T00:42:46;96728.56;;;19.62;56.82
15932;BME280;8065;49.520;11.284;2023-05-10T00:45:14;96731.63;;;19.68;56.43
15932;BME280;8065;49.520;11.284;2023-05-10T00:47:40;96730.84;;;19.67;56.62
15932;BME280;8065;49.520;11.284;2023-05-10T00:50:08;96736.19;;;19.74;56.69
15932;BME280;8065;49.520;11.284;2023-05-10T00:52:35;96730.72;;;19.85;56.60
15932;BME280;8065;49.520;11.284;2023-05-10T00:55:02;96729.59;;;19.82;56.85
15932;BME280;8065;49.520;11.284;2023-05-10T00:57:29;96733.16;;;19.69;58.20
15932;BME280;8065;49.520;11.284;2023-05-10T00:59:56;96739.34;;;19.62;58.26
15932;BME280;8065;49.520;11.284;2023-05-10T01:02:25;96737.50;;;19.52;58.68
15932;BME280;8065;49.520;11.284;2023-05-10T01:04:52;96740.97;;;19.45;59.10
15932;BME280;8065;49.520;11.284;2023-05-10T01:07:19;96741.03;;;19.35;58.69
15932;BME280;8065;49.520;11.284;2023-05-10T01:09:46;96746.34;;;19.49;58.91
15932;BME280;8065;49.520;11.284;2023-05-10T01:12:13;96741.72;;;19.49;59.51
15932;BME280;8065;49.520;11.284;2023-05-10T01:14:39;96743.25;;;19.47;59.68
15932;BME280;8065;49.520;11.284;2023-05-10T01:17:07;96741.34;;;19.47;60.19
15932;BME280;8065;49.520;11.284;2023-05-10T01:19:35;96748.72;;;19.32;61.37
15932;BME280;8065;49.520;11.284;2023-05-10T01:22:15;96738.75;;;19.26;61.27
15932;BME280;8065;49.520;11.284;2023-05-10T01:25:11;96745.31;;;19.21;60.96
15932;BME280;8065;49.520;11.284;2023-05-10T01:28:13;96737.63;;;19.16;62.10
15932;BME280;8065;49.520;11.284;2023-05-10T01:31:03;96744.19;;;19.12;61.68
15932;BME280;8065;49.520;11.284;2023-05-10T01:33:39;96734.97;;;19.09;62.26
15932;BME280;8065;49.520;11.284;2023-05-10T01:36:12;96735.81;;;19.03;62.86
15932;BME280;8065;49.520;11.284;2023-05-10T01:38:43;96733.88;;;19.03;63.41
15932;BME280;8065;49.520;11.284;2023-05-10T01:41:18;96746.47;;;19.20;63.18
15932;BME280;8065;49.520;11.284;2023-05-10T01:43:53;96744.53;;;19.21;63.86
15932;BME280;8065;49.520;11.284;2023-05-10T01:46:27;96743.00;;;19.20;65.58
15932;BME280;8065;49.520;11.284;2023-05-10T01:48:57;96746.47;;;19.20;65.90
15932;BME280;8065;49.520;11.284;2023-05-10T01:51:29;96741.06;;;19.27;66.71
15932;BME280;8065;49.520;11.284;2023-05-10T01:54:00;96739.84;;;19.36;67.82
15932;BME280;8065;49.520;11.284;2023-05-10T01:56:29;96743.38;;;19.25;68.90
15932;BME280;8065;49.520;11.284;2023-05-10T01:58:57;96748.00;;;19.25;69.83
15932;BME280;8065;49.520;11.284;2023-05-10T02:01:26;96753.06;;;19.12;70.60
15932;BME280;8065;49.520;11.284;2023-05-10T02:03:56;96758.06;;;19.10;71.58
15932;BME280;8065;49.520;11.284;2023-05-10T02:06:25;96754.19;;;19.18;72.13
15932;BME280;8065;49.520;11.284;2023-05-10T02:08:53;96748.81;;;19.11;73.62
15932;BME280;8065;49.520;11.284;2023-05-10T02:11:21;96749.59;;;19.08;73.71
15932;BME280;8065;49.520;11.284;2023-05-10T02:13:50;96749.66;;;19.01;74.72
15932;BME280;8065;49.520;11.284;2023-05-10T02:16:18;96747.38;;;18.96;74.44
15932;BME280;8065;49.520;11.284;2023-05-10T02:18:48;96742.00;;;18.92;74.53
15932;BME280;8065;49.520;11.284;2023-05-10T02:21:17;96732.81;;;18.76;75.18
15932;BME280;8065;49.520;11.284;2023-05-10T02:23:46;96738.22;;;18.65;76.09
15932;BME280;8065;49.520;11.284;2023-05-10T02:26:14;96733.22;;;18.71;76.27
15932;BME280;8065;49.520;11.284;2023-05-10T02:28:42;96738.97;;;18.80;76.71
15932;BME280;8065;49.520;11.284;2023-05-10T02:31:10;96738.22;;;18.69;78.74
15932;BME280;8065;49.520;11.284;2023-05-10T02:33:38;96737.84;;;18.45;80.42
15932;BME280;8065;49.520;11.284;2023-05-10T02:36:07;96742.84;;;18.36;80.52
15932;BME280;8065;49.520;11.284;2023-05-10T02:38:37;96740.59;;;18.17;82.26
15932;BME280;8065;49.520;11.284;2023-05-10T02:41:04;96751.34;;;18.17;81.51
15932;BME280;8065;49.520;11.284;2023-05-10T02:43:32;96746.75;;;18.07;82.36
15932;BME280;8065;49.520;11.284;2023-05-10T02:45:59;96737.53;;;18.15;81.68
15932;BME280;8065;49.520;11.284;2023-05-10T02:48:26;96736.75;;;18.14;82.45
15932;BME280;8065;49.520;11.284;2023-05-10T02:50:54;96732.88;;;18.26;82.01
15932;BME280;8065;49.520;11.284;2023-05-10T02:53:30;96736.72;;;18.25;82.25
15932;BME280;8065;49.520;11.284;2023-05-10T02:56:00;96737.88;;;18.31;81.93
15932;BME280;8065;49.520;11.284;2023-05-10T02:58:29;96736.72;;;18.32;82.98
15932;BME280;8065;49.520;11.284;2023-05-10T03:00:55;96732.84;;;18.44;82.07
15932;BME280;8065;49.520;11.284;2023-05-10T03:03:22;96733.25;;;18.35;82.60
15932;BME280;8065;49.520;11.284;2023-05-10T03:05:48;96735.53;;;18.47;82.54
15932;BME280;8065;49.520;11.284;2023-05-10T03:08:15;96739.00;;;18.41;83.95
15932;BME280;8065;49.520;11.284;2023-05-10T03:10:47;96729.78;;;18.45;83.96
15932;BME280;8065;49.520;11.284;2023-05-10T03:13:25;96737.44;;;18.54;83.61
15932;BME280;8065;49.520;11.284;2023-05-10T03:15:59;96732.44;;;18.59;83.71
15932;BME280;8065;49.520;11.284;2023-05-10T03:18:31;96731.31;;;18.67;83.76
15932;BME280;8065;49.520;11.284;2023-05-10T03:21:03;96729.00;;;18.55;84.48
15932;BME280;8065;49.520;11.284;2023-05-10T03:23:34;96739.75;;;18.55;84.60
15932;BME280;8065;49.520;11.284;2023-05-10T03:26:02;96741.31;;;18.63;84.18
15932;BME280;8065;49.520;11.284;2023-05-10T03:28:33;96742.44;;;18.70;84.56
15932;BME280;8065;49.520;11.284;2023-05-10T03:31:02;96750.53;;;18.52;85.37
15932;BME280;8065;49.520;11.284;2023-05-10T03:33:30;96750.53;;;18.55;85.27
15932;BME280;8065;49.520;11.284;2023-05-10T03:35:57;96746.69;;;18.53;85.47
15932;BME280;8065;49.520;11.284;2023-05-10T03:38:23;96747.06;;;18.51;85.90
15932;BME280;8065;49.520;11.284;2023-05-10T03:40:50;96757.44;;;18.56;85.97
15932;BME280;8065;49.520;11.284;2023-05-10T03:43:16;96755.91;;;18.62;85.42
15932;BME280;8065;49.520;11.284;2023-05-10T03:45:44;96755.53;;;18.67;85.30
15932;BME280;8065;49.520;11.284;2023-05-10T03:48:11;96756.28;;;18.54;85.45
15932;BME280;8065;49.520;11.284;2023-05-10T03:50:38;96754.38;;;18.54;85.52
15932;BME280;8065;49.520;11.284;2023-05-10T03:53:05;96762.03;;;18.59;85.29
15932;BME280;8065;49.520;11.284;2023-05-10T03:55:31;96761.66;;;18.57;85.22
15932;BME280;8065;49.520;11.284;2023-05-10T03:58:01;96765.13;;;18.54;85.20
15932;BME280;8065;49.520;11.284;2023-05-10T04:00:27;96768.97;;;18.53;85.26
15932;BME280;8065;49.520;11.284;2023-05-10T04:02:56;96762.81;;;18.53;84.93
15932;BME280;8065;49.520;11.284;2023-05-10T04:05:23;96769.00;;;18.60;84.61
15932;BME280;8065;49.520;11.284;2023-05-10T04:07:49;96771.28;;;18.62;84.73
15932;BME280;8065;49.520;11.284;2023-05-10T04:10:16;96773.97;;;18.65;84.63
15932;BME280;8065;49.520;11.284;2023-05-10T04:12:43;96782.44;;;18.60;84.68
15932;BME280;8065;49.520;11.284;2023-05-10T04:15:09;96771.28;;;18.58;85.00
15932;BME280;8065;49.520;11.284;2023-05-10T04:17:36;96773.59;;;18.56;84.80
15932;BME280;8065;49.520;11.284;2023-05-10T04:20:05;96782.81;;;18.45;84.89
15932;BME280;8065;49.520;11.284;2023-05-10T04:22:32;96784.38;;;18.31;85.53
15932;BME280;8065;49.520;11.284;2023-05-10T04:24:59;96796.66;;;18.29;85.23
15932;BME280;8065;49.520;11.284;2023-05-10T04:27:25;96798.59;;;18.25;84.89
15932;BME280;8065;49.520;11.284;2023-05-10T04:29:52;96796.66;;;18.25;85.06
15932;BME280;8065;49.520;11.284;2023-05-10T04:32:18;96806.66;;;18.28;85.06
15932;BME280;8065;49.520;11.284;2023-05-10T04:34:45;96800.88;;;18.30;84.89
15932;BME280;8065;49.520;11.284;2023-05-10T04:37:13;96803.19;;;18.21;85.51
15932;BME280;8065;49.520;11.284;2023-05-10T04:39:40;96806.66;;;18.35;84.73
15932;BME280;8065;49.520;11.284;2023-05-10T04:42:06;96806.66;;;18.35;84.74
15932;BME280;8065;49.520;11.284;2023-05-10T04:44:33;96814.34;;;18.30;84.80
15932;BME280;8065;49.520;11.284;2023-05-10T04:46:59;96814.72;;;18.25;84.56
15932;BME280;8065;49.520;11.284;2023-05-10T04:49:27;96813.56;;;18.29;84.35
15932;BME280;8065;49.520;11.284;2023-05-10T04:51:53;96813.56;;;18.26;83.99
15932;BME280;8065;49.520;11.284;2023-05-10T04:54:21;96813.59;;;18.12;84.80
15932;BME280;8065;49.520;11.284;2023-05-10T04:56:48;96821.25;;;18.02;85.10
15932;BME280;8065;49.520;11.284;2023-05-10T04:59:15;96822.03;;;18.10;84.57
15932;BME280;8065;49.520;11.284;2023-05-10T05:01:41;96830.88;;;18.18;84.03
15932;BME280;8065;49.520;11.284;2023-05-10T05:04:08;96831.28;;;18.20;84.03
15932;BME280;8065;49.520;11.284;2023-05-10T05:06:34;96837.00;;;18.22;84.35
15932;BME280;8065;49.520;11.284;2023-05-10T05:09:01;96830.47;;;18.05;84.75
15932;BME280;8065;49.520;11.284;2023-05-10T05:11:29;96838.94;;;18.11;84.59
15932;BME280;8065;49.520;11.284;2023-05-10T05:13:55;96840.84;;;18.07;84.57
15932;BME280;8065;49.520;11.284;2023-05-10T05:16:24;96843.56;;;18.14;84.11
15932;BME280;8065;49.520;11.284;2023-05-10T05:18:50;96848.16;;;18.10;84.01
15932;BME280;8065;49.520;11.284;2023-05-10T05:21:18;96842.00;;;17.98;85.03
15932;BME280;8065;49.520;11.284;2023-05-10T05:23:45;96855.06;;;18.04;84.57
15932;BME280;8065;49.520;11.284;2023-05-10T05:26:12;96858.50;;;17.93;84.87
15932;BME280;8065;49.520;11.284;2023-05-10T05:28:41;96861.19;;;18.00;84.82
15932;BME280;8065;49.520;11.284;2023-05-10T05:31:08;96867.34;;;18.05;84.55
15932;BME280;8065;49.520;11.284;2023-05-10T05:33:35;96857.38;;;18.16;84.16
15932;BME280;8065;49.520;11.284;2023-05-10T05:36:02;96862.00;;;18.19;83.91
15932;BME280;8065;49.520;11.284;2023-05-10T05:38:29;96862.00;;;18.15;83.01
15932;BME280;8065;49.520;11.284;2023-05-10T05:40:56;96865.47;;;18.16;83.26
15932;BME280;8065;49.520;11.284;2023-05-10T05:43:22;96862.38;;;18.14;83.41
15932;BME280;8065;49.520;11.284;2023-05-10T05:45:51;96863.53;;;18.20;83.56
15932;BME280;8065;49.520;11.284;2023-05-10T05:48:18;96871.19;;;18.25;83.62
15932;BME280;8065;49.520;11.284;2023-05-10T05:50:45;96876.59;;;18.32;83.31
15932;BME280;8065;49.520;11.284;2023-05-10T05:53:11;96863.53;;;18.27;83.30
15932;BME280;8065;49.520;11.284;2023-05-10T05:55:38;96877.38;;;18.36;82.92
15932;BME280;8065;49.520;11.284;2023-05-10T05:58:05;96875.81;;;18.31;83.38
15932;BME280;8065;49.520;11.284;2023-05-10T06:00:31;96874.69;;;18.36;83.25
15932;BME280;8065;49.520;11.284;2023-05-10T06:02:59;96882.38;;;18.48;82.69
15932;BME280;8065;49.520;11.284;2023-05-10T06:05:26;96881.22;;;18.46;82.41
15932;BME280;8065;49.520;11.284;2023-05-10T06:07:52;96889.31;;;18.63;82.04
15932;BME280;8065;49.520;11.284;2023-05-10T06:10:19;96891.97;;;18.53;82.07
15932;BME280;8065;49.520;11.284;2023-05-10T06:12:45;96888.19;;;18.61;82.04
15932;BME280;8065;49.520;11.284;2023-05-10T06:15:12;96899.28;;;18.59;81.68
15932;BME280;8065;49.520;11.284;2023-05-10T06:17:39;96898.94;;;18.61;81.74
15932;BME280;8065;49.520;11.284;2023-05-10T06:20:08;96905.09;;;18.61;81.13
15932;BME280;8065;49.520;11.284;2023-05-10T06:22:35;96899.72;;;18.69;81.18
15932;BME280;8065;49.520;11.284;2023-05-10T06:25:01;96902.78;;;18.63;81.40
15932;BME280;8065;49.520;11.284;2023-05-10T06:27:28;96914.31;;;18.60;81.29
15932;BME280;8065;49.520;11.284;2023-05-10T06:29:54;96912.78;;;18.74;80.94
15932;BME280;8065;49.520;11.284;2023-05-10T06:32:21;96911.63;;;18.75;80.86
15932;BME280;8065;49.520;11.284;2023-05-10T06:34:47;96920.09;;;18.62;80.21
15932;BME280;8065;49.520;11.284;2023-05-10T06:37:15;96919.72;;;18.71;80.37
15932;BME280;8065;49.520;11.284;2023-05-10T06:39:42;96922.78;;;18.70;80.26
15932;BME280;8065;49.520;11.284;2023-05-10T06:42:08;96919.31;;;18.73;80.34
15932;BME280;8065;49.520;11.284;2023-05-10T06:44:35;96920.88;;;18.74;80.11
15932;BME280;8065;49.520;11.284;2023-05-10T06:47:02;96920.47;;;18.79;79.84
15932;BME280;8065;49.520;11.284;2023-05-10T06:49:28;96915.88;;;18.86;79.31
15932;BME280;8065;49.520;11.284;2023-05-10T06:51:55;96927.00;;;18.78;79.49
15932;BME280;8065;49.520;11.284;2023-05-10T06:54:23;96925.84;;;18.64;79.69
15932;BME280;8065;49.520;11.284;2023-05-10T06:56:49;96930.09;;;18.73;79.55
15932;BME280;8065;49.520;11.284;2023-05-10T06:59:17;96932.03;;;18.83;79.44
15932;BME280;8065;49.520;11.284;2023-05-10T07:01:44;96928.94;;;18.81;79.41
15932;BME280;8065;49.520;11.284;2023-05-10T07:04:11;96934.31;;;18.95;79.03
15932;BME280;8065;49.520;11.284;2023-05-10T07:06:38;96930.47;;;19.03;79.34
15932;BME280;8065;49.520;11.284;2023-05-10T07:09:04;96927.78;;;18.85;78.26
15932;BME280;8065;49.520;11.284;2023-05-10T07:11:32;96940.47;;;18.92;78.66
15932;BME280;8065;49.520;11.284;2023-05-10T07:13:59;96936.63;;;18.93;78.45
15932;BME280;8065;49.520;11.284;2023-05-10T07:16:25;96944.31;;;18.91;79.14
15932;BME280;8065;49.520;11.284;2023-05-10T07:18:52;96940.09;;;19.01;78.95
15932;BME280;8065;49.520;11.284;2023-05-10T07:21:18;96941.22;;;19.07;78.27
15932;BME280;8065;49.520;11.284;2023-05-10T07:23:45;96939.66;;;19.13;78.10
15932;BME280;8065;49.520;11.284;2023-05-10T07:26:12;96948.91;;;19.15;78.04
15932;BME280;8065;49.520;11.284;2023-05-10T07:28:41;96948.13;;;19.18;78.08
15932;BME280;8065;49.520;11.284;2023-05-10T07:31:08;96941.94;;;19.36;77.46
15932;BME280;8065;49.520;11.284;2023-05-10T07:33:34;96947.34;;;19.28;76.86
15932;BME280;8065;49.520;11.284;2023-05-10T07:36:01;96951.59;;;19.29;76.97
15932;BME280;8065;49.520;11.284;2023-05-10T07:38:27;96957.34;;;19.39;76.72
15932;BME280;8065;49.520;11.284;2023-05-10T07:40:54;96948.09;;;19.54;76.53
15932;BME280;8065;49.520;11.284;2023-05-10T07:43:20;96948.09;;;19.61;75.76
15932;BME280;8065;49.520;11.284;2023-05-10T07:45:48;96947.31;;;19.53;75.27
15932;BME280;8065;49.520;11.284;2023-05-10T07:48:15;96957.31;;;19.67;74.68
15932;BME280;8065;49.520;11.284;2023-05-10T07:50:41;96957.72;;;19.55;74.49
15932;BME280;8065;49.520;11.284;2023-05-10T07:53:08;96968.88;;;19.43;75.04
15932;BME280;8065;49.520;11.284;2023-05-10T07:55:34;96965.81;;;19.41;74.77
15932;BME280;8065;49.520;11.284;2023-05-10T07:58:01;96971.97;;;19.38;73.97
15932;BME280;8065;49.520;11.284;2023-05-10T08:00:28;96975.03;;;19.40;74.22
15932;BME280;8065;49.520;11.284;2023-05-10T08:02:56;96975.06;;;19.36;74.52
15932;BME280;8065;49.520;11.284;2023-05-10T08:05:23;96974.28;;;19.43;74.28
15932;BME280;8065;49.520;11.284;2023-05-10T08:07:49;96972.72;;;19.49;74.21
15932;BME280;8065;49.520;11.284;2023-05-10T08:10:16;96969.66;;;19.40;74.49
15932;BME280;8065;49.520;11.284;2023-05-10T08:12:43;96973.09;;;19.51;73.48
15932;BME280;8065;49.520;11.284;2023-05-10T08:15:10;96975.03;;;19.47;73.51
15932;BME280;8065;49.520;11.284;2023-05-10T08:17:36;96983.13;;;19.61;73.21
15932;BME280;8065;49.520;11.284;2023-05-10T08:20:05;96978.50;;;19.51;73.54
15932;BME280;8065;49.520;11.284;2023-05-10T08:22:33;96983.53;;;19.56;72.31
15932;BME280;8065;49.520;11.284;2023-05-10T08:24:59;96985.06;;;19.53;72.34
15932;BME280;8065;49.520;11.284;2023-05-10T08:27:26;96981.19;;;19.47;72.73
15932;BME280;8065;49.520;11.284;2023-05-10T08:29:52;96992.75;;;19.62;72.33
15932;BME280;8065;49.520;11.284;2023-05-10T08:32:19;96989.25;;;19.72;71.82
15932;BME280;8065;49.520;11.284;2023-05-10T08:34:45;96984.63;;;19.80;72.24
15932;BME280;8065;49.520;11.284;2023-05-10T08:37:13;96990.75;;;19.87;72.52
15932;BME280;8065;49.520;11.284;2023-05-10T08:39:40;96995.81;;;19.75;72.60
15932;BME280;8065;49.520;11.284;2023-05-10T08:42:07;96994.28;;;19.70;72.78
15932;BME280;8065;49.520;11.284;2023-05-10T08:44:36;97003.50;;;19.69;72.14
15932;BME280;8065;49.520;11.284;2023-05-10T08:47:05;96993.53;;;19.62;72.01
15932;BME280;8065;49.520;11.284;2023-05-10T08:49:32;96996.59;;;19.43;72.18
15932;BME280;8065;49.520;11.284;2023-05-10T08:52:02;97008.13;;;19.51;72.20
15932;BME280;8065;49.520;11.284;2023-05-10T08:54:31;97007.38;;;19.47;72.61
15932;BME280;8065;49.520;11.284;2023-05-10T08:56:58;97014.69;;;19.36;73.19
15932;BME280;8065;49.520;11.284;2023-05-10T08:59:25;97005.47;;;19.37;73.57
15932;BME280;8065;49.520;11.284;2023-05-10T09:01:52;97010.09;;;19.32;73.94
15932;BME280;8065;49.520;11.284;2023-05-10T09:04:20;97012.78;;;19.40;73.95
15932;BME280;8065;49.520;11.284;2023-05-10T09:06:47;97008.91;;;19.44;74.46
15932;BME280;8065;49.520;11.284;2023-05-10T09:09:14;97004.31;;;19.52;74.96
15932;BME280;8065;49.520;11.284;2023-05-10T09:11:42;97007.41;;;19.54;75.83
15932;BME280;8065;49.520;11.284;2023-05-10T09:14:09;97011.22;;;19.67;75.80
15932;BME280;8065;49.520;11.284;2023-05-10T09:16:37;97011.56;;;19.83;76.02
15932;BME280;8065;49.520;11.284;2023-05-10T09:19:04;97011.19;;;19.81;74.98
15932;BME280;8065;49.520;11.284;2023-05-10T09:21:30;97008.69;;;20.26;73.89
15932;BME280;8065;49.520;11.284;2023-05-10T09:24:02;97007.50;;;20.41;73.63
15932;BME280;8065;49.520;11.284;2023-05-10T09:26:29;97006.22;;;20.64;73.29
15932;BME280;8065;49.520;11.284;2023-05-10T09:28:57;97008.84;;;20.78;72.70
15932;BME280;8065;49.520;11.284;2023-05-10T09:31:43;97003.03;;;20.79;72.60
15932;BME280;8065;49.520;11.284;2023-05-10T09:34:10;97005.03;;;20.68;70.27
15932;BME280;8065;49.520;11.284;2023-05-10T09:36:36;97009.22;;;20.76;70.15
15932;BME280;8065;49.520;11.284;2023-05-10T09:39:03;97000.63;;;20.88;70.12
15932;BME280;8065;49.520;11.284;2023-05-10T09:41:29;97000.22;;;20.90;71.52
15932;BME280;8065;49.520;11.284;2023-05-10T09:43:57;97004.91;;;20.82;72.83
15932;BME280;8065;49.520;11.284;2023-05-10T09:46:24;97015.09;;;20.60;72.46
15932;BME280;8065;49.520;11.284;2023-05-10T09:48:51;97025.56;;;20.55;73.55
15932;BME280;8065;49.520;11.284;2023-05-10T09:51:21;97024.78;;;20.54;74.20
15932;BME280;8065;49.520;11.284;2023-05-10T09:53:48;97031.50;;;20.11;75.30
15932;BME280;8065;49.520;11.284;2023-05-10T09:56:33;97029.59;;;20.01;76.81
15932;BME280;8065;49.520;11.284;2023-05-10T09:59:06;97030.34;;;20.08;76.24
15932;BME280;8065;49.520;11.284;2023-05-10T10:01:33;97034.94;;;20.15;76.30
15932;BME280;8065;49.520;11.284;2023-05-10T10:04:02;97031.16;;;19.94;77.13
15932;BME280;8065;49.520;11.284;2023-05-10T10:06:29;97036.16;;;19.96;77.23
15932;BME280;8065;49.520;11.284;2023-05-10T10:09:00;97030.47;;;19.76;76.18
15932;BME280;8065;49.520;11.284;2023-05-10T10:11:28;97038.16;;;19.81;76.58
15932;BME280;8065;49.520;11.284;2023-05-10T10:13:55;97025.06;;;19.76;76.71
15932;BME280;8065;49.520;11.284;2023-05-10T10:16:24;97030.44;;;19.90;76.48
15932;BME280;8065;49.520;11.284;2023-05-10T10:18:50;97031.97;;;19.88;77.40
15932;BME280;8065;49.520;11.284;2023-05-10T10:21:19;97028.13;;;19.92;77.42
15932;BME280;8065;49.520;11.284;2023-05-10T10:23:46;97028.13;;;19.92;78.18
15932;BME280;8065;49.520;11.284;2023-05-10T10:26:12;97026.09;;;20.11;77.28
15932;BME280;8065;49.520;11.284;2023-05-10T10:28:47;97030.00;;;19.95;77.45
15932;BME280;8065;49.520;11.284;2023-05-10T10:31:23;97026.66;;;19.56;78.79
15932;BME280;8065;49.520;11.284;2023-05-10T10:33:59;97022.78;;;19.43;79.02
15932;BME280;8065;49.520;11.284;2023-05-10T10:36:27;97018.16;;;19.57;78.87
15932;BME280;8065;49.520;11.284;2023-05-10T10:39:00;97032.81;;;19.60;77.89
15932;BME280;8065;49.520;11.284;2023-05-10T10:41:32;97021.25;;;19.56;78.53
15932;BME280;8065;49.520;11.284;2023-05-10T10:44:25;97017.03;;;19.55;78.13
15932;BME280;8065;49.520;11.284;2023-05-10T10:50:04;97022.75;;;19.82;76.53
15932;BME280;8065;49.520;11.284;2023-05-10T10:52:32;97019.59;;;19.94;76.38
15932;BME280;8065;49.520;11.284;2023-05-10T10:55:02;97013.41;;;20.04;76.15
15932;BME280;8065;49.520;11.284;2023-05-10T10:57:31;97011.97;;;19.78;78.96
15932;BME280;8065;49.520;11.284;2023-05-10T11:03:04;97000.59;;;20.26;77.26
15932;BME280;8065;49.520;11.284;2023-05-10T11:05:37;97005.63;;;20.24;76.75
15932;BME280;8065;49.520;11.284;2023-05-10T11:08:10;96991.66;;;20.47;77.89
15932;BME280;8065;49.520;11.284;2023-05-10T11:10:37;96999.31;;;20.55;76.93
15932;BME280;8065;49.520;11.284;2023-05-10T11:13:05;97000.00;;;20.74;76.99
15932;BME280;8065;49.520;11.284;2023-05-10T11:15:33;97000.16;;;20.45;75.27
15932;BME280;8065;49.520;11.284;2023-05-10T11:18:16;96996.66;;;20.48;75.94
15932;BME280;8065;49.520;11.284;2023-05-10T11:20:50;96990.59;;;20.89;76.19
15932;BME280;8065;49.520;11.284;2023-05-10T11:23:17;96999.31;;;20.55;75.33
15932;BME280;8065;49.520;11.284;2023-05-10T11:25:45;97002.53;;;20.22;75.83
15932;BME280;8065;49.520;11.284;2023-05-10T11:28:12;97000.81;;;19.76;78.62
15932;BME280;8065;49.520;11.284;2023-05-10T11:30:40;97005.03;;;19.81;77.87
15932;BME280;8065;49.520;11.284;2023-05-10T11:33:07;96997.94;;;20.19;76.22
15932;BME280;8065;49.520;11.284;2023-05-10T11:35:38;97007.25;;;19.96;76.49
15932;BME280;8065;49.520;11.284;2023-05-10T11:38:07;96996.47;;;19.96;77.19
15932;BME280;8065;49.520;11.284;2023-05-10T11:40:34;97000.31;;;20.06;76.53
15932;BME280;8065;49.520;11.284;2023-05-10T11:43:00;97005.59;;;20.27;75.77
15932;BME280;8065;49.520;11.284;2023-05-10T11:45:27;97008.66;;;20.40;75.81
15932;BME280;8065;49.520;11.284;2023-05-10T11:47:54;97001.72;;;20.32;76.21
15932;BME280;8065;49.520;11.284;2023-05-10T11:50:21;97009.47;;;20.26;75.58
15932;BME280;8065;49.520;11.284;2023-05-10T11:52:50;97008.66;;;20.44;74.85
15932;BME280;8065;49.520;11.284;2023-05-10T11:55:18;97011.66;;;20.56;75.05
15932;BME280;8065;49.520;11.284;2023-05-10T11:57:45;97002.72;;;20.70;75.12
15932;BME280;8065;49.520;11.284;2023-05-10T12:00:12;97005.31;;;20.81;74.39
15932;BME280;8065;49.520;11.284;2023-05-10T12:02:39;97008.84;;;20.78;73.63
15932;BME280;8065;49.520;11.284;2023-05-10T12:05:06;97013.00;;;20.86;72.81
15932;BME280;8065;49.520;11.284;2023-05-10T12:07:33;97009.03;;;21.01;70.82
15932;BME280;8065;49.520;11.284;2023-05-10T12:10:07;97012.41;;;21.12;69.13
15932;BME280;8065;49.520;11.284;2023-05-10T12:12:40;97015.13;;;21.12;67.97
15932;BME280;8065;49.520;11.284;2023-05-10T12:15:12;97019.59;;;21.37;67.79
15932;BME280;8065;49.520;11.284;2023-05-10T12:17:39;97014.06;;;21.51;67.82
15932;BME280;8065;49.520;11.284;2023-05-10T12:20:16;97018.72;;;21.47;66.34
15932;BME280;8065;49.520;11.284;2023-05-10T12:22:47;97015.88;;;21.61;66.80
15932;BME280;8065;49.520;11.284;2023-05-10T12:25:15;97010.03;;;21.66;65.97
15932;BME280;8065;49.520;11.284;2023-05-10T12:27:49;97019.41;;;21.58;65.46
15932;BME280;8065;49.520;11.284;2023-05-10T12:30:21;97018.50;;;21.68;66.52
15932;BME280;8065;49.520;11.284;2023-05-10T12:32:48;97030.03;;;21.72;66.73
15932;BME280;8065;49.520;11.284;2023-05-10T12:35:15;97021.56;;;21.70;65.95
15932;BME280;8065;49.520;11.284;2023-05-10T12:37:42;97020.00;;;21.73;65.62
15932;BME280;8065;49.520;11.284;2023-05-10T12:40:10;97031.50;;;21.80;64.97
15932;BME280;8065;49.520;11.284;2023-05-10T12:42:38;97025.22;;;21.90;63.80
15932;BME280;8065;49.520;11.284;2023-05-10T12:45:08;97026.75;;;21.91;61.85
15932;BME280;8065;49.520;11.284;2023-05-10T12:47:34;97027.38;;;22.10;61.56
15932;BME280;8065;49.520;11.284;2023-05-10T12:50:02;97024.28;;;22.08;61.89
15932;BME280;8065;49.520;11.284;2023-05-10T12:52:29;97030.50;;;22.05;61.36
15932;BME280;8065;49.520;11.284;2023-05-10T12:54:56;97024.34;;;22.04;61.20
15932;BME280;8065;49.520;11.284;2023-05-10T12:57:23;97019.16;;;22.17;60.89
15932;BME280;8065;49.520;11.284;2023-05-10T12:59:49;97017.00;;;22.35;60.83
15932;BME280;8065;49.520;11.284;2023-05-10T13:02:17;97018.44;;;22.43;61.04
15932;BME280;8065;49.520;11.284;2023-05-10T13:04:45;97021.50;;;22.45;60.15
15932;BME280;8065;49.520;11.284;2023-05-10T13:07:12;97021.25;;;22.63;59.85
15932;BME280;8065;49.520;11.284;2023-05-10T13:09:39;97019.88;;;22.51;59.26
15932;BME280;8065;49.520;11.284;2023-05-10T13:12:06;97025.09;;;22.66;59.01